createdAt,value
2023-01-12T00:00:07.557Z,100827.31
2023-01-12T00:03:10.456Z,100804.13
2023-01-12T00:06:14.611Z,100800.72
2023-01-12T00:09:17.458Z,100802.41
2023-01-12T00:12:20.302Z,100794.34
2023-01-12T00:15:56.370Z,100793.66
2023-01-12T00:18:59.300Z,100795.41
2023-01-12T00:22:09.012Z,100801.56
2023-01-12T00:25:11.827Z,100807.72
2023-01-12T00:28:14.586Z,100809.88
2023-01-12T00:31:17.450Z,100806.38
2023-01-12T00:34:20.318Z,100801.81
2023-01-12T00:37:26.226Z,100800.28
2023-01-12T00:40:29.031Z,100811.38
2023-01-12T00:43:49.445Z,100793.84
2023-01-12T00:46:52.240Z,100795.84
2023-01-12T00:49:55.117Z,100795.63
2023-01-12T00:52:59.284Z,100801.81
2023-01-12T00:56:02.616Z,100795.53
2023-01-12T00:59:06.085Z,100793.09
2023-01-12T01:02:09.035Z,100786.72
2023-01-12T01:05:11.928Z,100785.22
2023-01-12T01:08:16.191Z,100785.97
2023-01-12T01:11:19.322Z,100780.75
2023-01-12T01:14:22.153Z,100786.81
2023-01-12T01:17:25.052Z,100784.03
2023-01-12T01:20:28.114Z,100794.69
2023-01-12T01:23:34.777Z,100798.97
2023-01-12T01:26:37.570Z,100788.41
2023-01-12T01:29:40.363Z,100784.91
2023-01-12T01:32:43.112Z,100780.66
2023-01-12T01:35:45.959Z,100774.25
2023-01-12T01:38:50.904Z,100773.53
2023-01-12T01:41:53.809Z,100778.53
2023-01-12T01:44:58.045Z,100776.06
2023-01-12T01:48:02.135Z,100772.13
2023-01-12T01:51:08.092Z,100767.00
2023-01-12T01:54:12.653Z,100773.69
2023-01-12T01:57:16.571Z,100778.22
2023-01-12T02:00:19.548Z,100774.19
2023-01-12T02:03:22.649Z,100771.41
2023-01-12T02:06:26.348Z,100786.59
2023-01-12T02:09:31.367Z,100794.56
2023-01-12T02:12:51.858Z,100798.63
2023-01-12T02:16:17.296Z,100789.41
2023-01-12T02:19:33.529Z,100784.09
2023-01-12T02:23:03.447Z,100783.91
2023-01-12T02:26:23.956Z,100784.66
2023-01-12T02:29:41.593Z,100773.06
2023-01-12T02:32:50.231Z,100770.97
2023-01-12T02:35:56.607Z,100773.63
2023-01-12T02:39:08.980Z,100762.31
2023-01-12T02:42:33.805Z,100768.09
2023-01-12T02:45:42.893Z,100763.00
2023-01-12T02:48:49.557Z,100757.47
2023-01-12T02:51:55.666Z,100760.97
2023-01-12T02:55:00.233Z,100766.50
2023-01-12T02:58:06.274Z,100758.41
2023-01-12T03:01:10.763Z,100761.19
2023-01-12T03:04:15.707Z,100761.94
2023-01-12T03:07:28.858Z,100750.34
2023-01-12T03:10:45.804Z,100744.16
2023-01-12T03:13:50.547Z,100738.84
2023-01-12T03:16:55.674Z,100735.16
2023-01-12T03:20:02.638Z,100734.09
2023-01-12T03:23:08.031Z,100737.59
2023-01-12T03:26:12.305Z,100736.00
2023-01-12T03:29:16.994Z,100735.91
2023-01-12T03:32:21.660Z,100746.31
2023-01-12T03:35:28.449Z,100744.63
2023-01-12T03:38:36.036Z,100738.44
2023-01-12T03:41:43.252Z,100741.00
2023-01-12T03:44:54.129Z,100739.19
2023-01-12T03:47:58.595Z,100747.16
2023-01-12T03:51:05.913Z,100741.00
2023-01-12T03:54:11.922Z,100741.22
2023-01-12T03:57:15.413Z,100742.69
2023-01-12T04:00:20.878Z,100736.63
2023-01-12T04:03:24.505Z,100740.38
2023-01-12T04:06:28.894Z,100731.97
2023-01-12T04:09:31.685Z,100733.13
2023-01-12T04:12:34.483Z,100733.97
2023-01-12T04:15:42.410Z,100740.69
2023-01-12T04:18:45.288Z,100740.03
2023-01-12T04:22:07.017Z,100741.75
2023-01-12T04:25:10.909Z,100733.69
2023-01-12T04:28:13.694Z,100740.69
2023-01-12T04:31:17.067Z,100737.31
2023-01-12T04:34:20.205Z,100720.94
2023-01-12T04:37:24.379Z,100712.97
2023-01-12T04:40:27.280Z,100709.53
2023-01-12T04:43:30.112Z,100709.63
2023-01-12T04:46:32.979Z,100705.16
2023-01-12T04:49:35.771Z,100708.72
2023-01-12T04:52:39.957Z,100706.72
2023-01-12T04:55:43.783Z,100706.78
2023-01-12T04:58:46.744Z,100712.78
2023-01-12T05:01:52.239Z,100701.09
2023-01-12T05:04:55.142Z,100702.38
2023-01-12T05:08:19.404Z,100705.03
2023-01-12T05:11:22.340Z,100705.16
2023-01-12T05:14:27.030Z,100696.94
2023-01-12T05:17:31.111Z,100705.16
2023-01-12T05:20:35.351Z,100697.13
2023-01-12T05:23:39.770Z,100681.28
2023-01-12T05:26:42.600Z,100680.03
2023-01-12T05:29:45.493Z,100684.66
2023-01-12T05:32:48.272Z,100673.28
2023-01-12T05:35:51.070Z,100674.25
2023-01-12T05:38:55.309Z,100676.91
2023-01-12T05:42:30.077Z,100682.25
2023-01-12T05:45:32.873Z,100672.56
2023-01-12T05:48:35.695Z,100676.91
2023-01-12T05:51:38.554Z,100693.97
2023-01-12T05:54:42.732Z,100685.25
2023-01-12T05:57:45.572Z,100691.06
2023-01-12T06:00:48.392Z,100693.09
2023-01-12T06:03:51.805Z,100690.69
2023-01-12T06:06:54.672Z,100680.03
2023-01-12T06:09:58.940Z,100683.63
2023-01-12T06:13:19.103Z,100673.09
2023-01-12T06:16:21.955Z,100670.31
2023-01-12T06:19:24.751Z,100670.50
2023-01-12T06:22:28.215Z,100668.75
2023-01-12T06:25:32.589Z,100659.38
2023-01-12T06:28:36.491Z,100660.22
2023-01-12T06:31:39.514Z,100661.19
2023-01-12T06:34:42.384Z,100670.75
2023-01-12T06:37:45.258Z,100664.25
2023-01-12T06:40:49.460Z,100665.34
2023-01-12T06:43:52.267Z,100662.03
2023-01-12T06:46:55.068Z,100675.34
2023-01-12T06:49:58.350Z,100670.00
2023-01-12T06:53:01.440Z,100663.94
2023-01-12T06:56:06.128Z,100659.25
2023-01-12T06:59:10.103Z,100651.63
2023-01-12T07:02:13.901Z,100653.81
2023-01-12T07:05:16.885Z,100654.03
2023-01-12T07:08:19.669Z,100652.47
2023-01-12T07:11:23.837Z,100646.81
2023-01-12T07:14:26.765Z,100652.22
2023-01-12T07:17:29.572Z,100640.97
2023-01-12T07:20:32.452Z,100645.84
2023-01-12T07:23:35.251Z,100647.75
2023-01-12T07:26:39.420Z,100649.47
2023-01-12T07:29:42.272Z,100637.25
2023-01-12T07:32:45.117Z,100646.06
2023-01-12T07:35:47.940Z,100636.44
2023-01-12T07:38:50.815Z,100630.22
2023-01-12T07:42:12.596Z,100628.28
2023-01-12T07:45:15.527Z,100635.41
2023-01-12T07:48:18.310Z,100628.59
2023-01-12T07:51:21.142Z,100630.75
2023-01-12T07:54:24.196Z,100623.41
2023-01-12T07:57:29.448Z,100625.59
2023-01-12T08:00:32.512Z,100628.50
2023-01-12T08:03:35.334Z,100632.53
2023-01-12T08:06:38.101Z,100632.66
2023-01-12T08:09:40.919Z,100634.88
2023-01-12T08:12:45.112Z,100636.75
2023-01-12T08:15:49.508Z,100636.34
2023-01-12T08:18:55.446Z,100627.19
2023-01-12T08:22:00.068Z,100628.06
2023-01-12T08:25:06.296Z,100617.97
2023-01-12T08:28:10.472Z,100612.63
2023-01-12T08:31:15.147Z,100616.47
2023-01-12T08:34:18.043Z,100608.91
2023-01-12T08:37:22.271Z,100601.78
2023-01-12T08:40:45.250Z,100607.22
2023-01-12T08:44:06.063Z,100606.97
2023-01-12T08:47:16.291Z,100590.72
2023-01-12T08:50:19.243Z,100587.19
2023-01-12T08:53:22.099Z,100593.28
2023-01-12T08:56:25.031Z,100593.56
2023-01-12T08:59:29.305Z,100591.47
2023-01-12T09:02:32.245Z,100593.59
2023-01-12T09:05:35.130Z,100584.88
2023-01-12T09:08:37.942Z,100583.78
2023-01-12T09:11:42.059Z,100579.31
2023-01-12T09:14:46.225Z,100576.19
2023-01-12T09:17:53.294Z,100564.84
2023-01-12T09:21:01.462Z,100571.22
2023-01-12T09:24:04.631Z,100566.53
2023-01-12T09:27:07.547Z,100564.97
2023-01-12T09:30:12.787Z,100564.66
2023-01-12T09:33:15.634Z,100560.06
2023-01-12T09:36:19.472Z,100561.22
2023-01-12T09:39:27.874Z,100554.78
2023-01-12T09:42:48.721Z,100550.81
2023-01-12T09:46:10.408Z,100551.94
2023-01-12T09:49:13.762Z,100543.25
2023-01-12T09:52:18.689Z,100535.25
2023-01-12T10:09:34.739Z,100522.50
2023-01-12T10:12:42.004Z,100538.47
2023-01-12T10:15:47.489Z,100531.00
2023-01-12T10:18:54.694Z,100534.63
2023-01-12T10:21:57.645Z,100529.28
2023-01-12T10:25:01.950Z,100526.16
2023-01-12T10:28:08.412Z,100516.41
2023-01-12T10:31:15.269Z,100519.91
2023-01-12T10:34:18.701Z,100515.44
2023-01-12T10:37:21.474Z,100517.34
2023-01-12T10:40:28.149Z,100517.03
2023-01-12T10:43:34.184Z,100511.81
2023-01-12T10:46:37.080Z,100510.22
2023-01-12T10:49:39.868Z,100502.75
2023-01-12T10:52:43.171Z,100495.22
2023-01-12T10:55:47.558Z,100501.28
2023-01-12T10:58:54.424Z,100504.69
2023-01-12T11:02:14.482Z,100503.44
2023-01-12T11:05:31.401Z,100501.28
2023-01-12T11:08:34.169Z,100493.28
2023-01-12T11:11:38.688Z,100487.13
2023-01-12T11:14:41.582Z,100498.16
2023-01-12T11:17:50.967Z,100501.78
2023-01-12T11:20:56.914Z,100491.88
2023-01-12T11:24:04.085Z,100506.03
2023-01-12T11:27:14.095Z,100503.38
2023-01-12T11:30:20.933Z,100502.66
2023-01-12T11:33:25.956Z,100489.34
2023-01-12T11:36:30.234Z,100501.06
2023-01-12T11:39:33.544Z,100490.91
2023-01-12T11:42:55.311Z,100500.09
2023-01-12T11:46:02.183Z,100492.97
2023-01-12T11:49:08.654Z,100491.88
2023-01-12T11:52:12.461Z,100492.84
2023-01-12T11:55:16.772Z,100488.16
2023-01-12T11:58:26.366Z,100484.00
2023-01-12T12:01:32.517Z,100490.31
2023-01-12T12:04:42.518Z,100489.09
2023-01-12T12:07:53.845Z,100483.91
2023-01-12T12:11:00.548Z,100482.19
2023-01-12T12:14:14.474Z,100481.34
2023-01-12T12:17:20.695Z,100473.59
2023-01-12T12:20:28.322Z,100479.47
2023-01-12T12:23:35.061Z,100480.34
2023-01-12T12:26:40.083Z,100479.81
2023-01-12T12:29:56.883Z,100491.31
2023-01-12T12:33:03.472Z,100487.34
2023-01-12T12:36:18.497Z,100490.03
2023-01-12T12:39:34.835Z,100504.19
2023-01-12T12:43:10.731Z,100499.22
2023-01-12T12:46:19.355Z,100499.69
2023-01-12T12:49:25.822Z,100494.72
2023-01-12T12:52:31.154Z,100491.94
2023-01-12T12:55:34.087Z,100490.25
2023-01-12T12:58:41.683Z,100495.69
2023-01-12T13:02:00.057Z,100496.31
2023-01-12T13:05:05.289Z,100495.59
2023-01-12T13:08:17.408Z,100495.59
2023-01-12T13:11:20.767Z,100493.66
2023-01-12T13:14:26.590Z,100493.03
2023-01-12T13:17:44.754Z,100502.59
2023-01-12T13:20:53.366Z,100500.91
2023-01-12T13:24:18.466Z,100502.59
2023-01-12T13:27:40.538Z,100495.22
2023-01-12T13:30:50.759Z,100492.69
2023-01-12T13:34:14.914Z,100483.63
2023-01-12T13:37:23.806Z,100486.31
2023-01-12T13:40:28.363Z,100487.88
2023-01-12T13:43:34.098Z,100480.72
2023-01-12T13:46:41.309Z,100471.06
2023-01-12T13:49:47.763Z,100476.00
2023-01-12T13:52:57.601Z,100473.72
2023-01-12T13:56:01.225Z,100473.06
2023-01-12T13:59:06.291Z,100467.34
2023-01-12T14:02:17.970Z,100476.53
2023-01-12T14:05:40.147Z,100468.53
2023-01-12T14:08:53.711Z,100474.56
2023-01-12T14:12:13.317Z,100462.50
2023-01-12T14:15:45.366Z,100455.69
2023-01-12T14:18:49.646Z,100464.44
2023-01-12T14:21:58.500Z,100458.34
2023-01-12T14:25:13.374Z,100468.41
2023-01-12T14:28:20.166Z,100472.91
2023-01-12T14:31:26.251Z,100473.75
2023-01-12T14:34:31.924Z,100472.69
2023-01-12T14:37:36.604Z,100470.16
2023-01-12T14:40:39.399Z,100472.31
2023-01-12T14:43:59.731Z,100472.22
2023-01-12T14:47:02.718Z,100466.00
2023-01-12T14:50:20.112Z,100468.31
2023-01-12T14:53:32.198Z,100458.75
2023-01-12T14:56:38.761Z,100468.41
2023-01-12T14:59:45.125Z,100458.53
2023-01-12T15:02:50.271Z,100459.09
2023-01-12T15:05:55.298Z,100448.94
2023-01-12T15:09:01.471Z,100456.06
2023-01-12T15:12:19.094Z,100458.25
2023-01-12T15:15:23.235Z,100459.59
2023-01-12T15:18:43.698Z,100459.81
2023-01-12T15:22:07.446Z,100470.81
2023-01-12T15:25:31.949Z,100467.75
2023-01-12T15:28:34.822Z,100463.63
2023-01-12T15:31:38.508Z,100452.59
2023-01-12T15:34:41.329Z,100467.94
2023-01-12T15:37:44.105Z,100468.28
2023-01-12T15:40:48.868Z,100455.44
2023-01-12T15:43:51.788Z,100459.78
2023-01-12T15:46:54.712Z,100458.22
2023-01-12T15:49:57.508Z,100452.56
2023-01-12T15:53:00.929Z,100445.16
2023-01-12T15:56:05.294Z,100449.06
2023-01-12T15:59:08.106Z,100441.44
2023-01-12T16:02:24.760Z,100454.94
2023-01-12T16:05:27.580Z,100447.28
2023-01-12T16:08:30.508Z,100451.66
2023-01-12T16:11:34.719Z,100450.81
2023-01-12T16:14:37.514Z,100443.13
2023-01-12T16:17:40.306Z,100440.97
2023-01-12T16:20:43.078Z,100432.72
2023-01-12T16:23:45.977Z,100434.03
2023-01-12T16:26:50.134Z,100429.88
2023-01-12T16:29:53.624Z,100434.13
2023-01-12T16:32:58.545Z,100423.72
2023-01-12T16:36:02.009Z,100423.44
2023-01-12T16:39:04.928Z,100430.78
2023-01-12T16:42:09.122Z,100428.13
2023-01-12T16:45:12.036Z,100437.69
2023-01-12T16:48:14.853Z,100420.88
2023-01-12T16:51:18.280Z,100426.81
2023-01-12T16:54:21.133Z,100420.53
2023-01-12T16:57:25.262Z,100423.94
2023-01-12T17:00:29.349Z,100414.69
2023-01-12T17:03:32.266Z,100421.53
2023-01-12T17:06:35.116Z,100413.19
2023-01-12T17:09:38.445Z,100412.09
2023-01-12T17:12:53.414Z,100405.94
2023-01-12T17:16:01.053Z,100408.47
2023-01-12T17:19:04.027Z,100402.53
2023-01-12T17:22:08.111Z,100396.34
2023-01-12T17:25:11.588Z,100397.81
2023-01-12T17:28:15.752Z,100380.75
2023-01-12T17:31:20.461Z,100394.69
2023-01-12T17:34:23.597Z,100375.22
2023-01-12T17:37:26.347Z,100374.97
2023-01-12T17:40:29.141Z,100366.38
2023-01-12T17:43:34.332Z,100365.16
2023-01-12T17:46:37.170Z,100361.06
2023-01-12T17:49:39.967Z,100364.44
2023-01-12T17:52:43.753Z,100358.28
2023-01-12T17:55:48.714Z,100356.00
2023-01-12T17:58:54.266Z,100352.09
2023-01-12T18:01:57.520Z,100358.88
2023-01-12T18:05:00.388Z,100359.00
2023-01-12T18:08:03.092Z,100356.13
2023-01-12T18:11:06.416Z,100353.31
2023-01-12T18:14:11.156Z,100356.22
2023-01-12T18:17:14.113Z,100356.00
2023-01-12T18:20:17.075Z,100356.00
2023-01-12T18:23:19.808Z,100352.59
2023-01-12T18:26:24.941Z,100361.19
2023-01-12T18:29:29.217Z,100362.16
2023-01-12T18:32:31.976Z,100363.97
2023-01-12T18:35:36.818Z,100361.81
2023-01-12T18:38:40.682Z,100373.31
2023-01-12T18:42:00.751Z,100365.47
2023-01-12T18:45:05.522Z,100370.88
2023-01-12T18:48:24.231Z,100364.69
2023-01-12T18:51:44.871Z,100370.16
2023-01-12T18:54:48.517Z,100375.34
2023-01-12T18:57:54.089Z,100370.78
2023-01-12T19:00:58.962Z,100380.69
2023-01-12T19:04:02.697Z,100362.88
2023-01-12T19:07:05.410Z,100366.38
2023-01-12T19:10:08.700Z,100366.38
2023-01-12T19:13:29.043Z,100367.88
2023-01-12T19:16:51.375Z,100358.19
2023-01-12T19:19:54.282Z,100372.47
2023-01-12T19:23:14.817Z,100360.97
2023-01-12T19:26:35.483Z,100366.06
2023-01-12T19:29:40.823Z,100369.34
2023-01-12T19:32:45.627Z,100361.44
2023-01-12T19:35:48.433Z,100354.22
2023-01-12T19:38:51.445Z,100358.56
2023-01-12T19:42:11.678Z,100352.47
2023-01-12T19:45:14.832Z,100358.91
2023-01-12T19:48:19.947Z,100358.31
2023-01-12T19:51:22.829Z,100357.69
2023-01-12T19:54:25.920Z,100359.00
2023-01-12T19:57:28.726Z,100346.16
2023-01-12T20:00:31.553Z,100339.25
2023-01-12T20:03:36.027Z,100337.78
2023-01-12T20:06:38.879Z,100334.84
2023-01-12T20:09:41.896Z,100339.59
2023-01-12T20:12:44.615Z,100336.53
2023-01-12T20:15:48.665Z,100346.91
2023-01-12T20:18:56.957Z,100343.72
2023-01-12T20:21:59.774Z,100340.66
2023-01-12T20:25:02.905Z,100340.78
2023-01-12T20:28:05.756Z,100351.75
2023-01-12T20:31:11.887Z,100351.97
2023-01-12T20:34:16.259Z,100348.00
2023-01-12T20:37:20.328Z,100357.91
2023-01-12T20:40:23.346Z,100354.91
2023-01-12T20:43:26.151Z,100352.91
2023-01-12T20:46:28.962Z,100354.97
2023-01-12T20:49:33.068Z,100349.84
2023-01-12T20:52:36.331Z,100355.75
2023-01-12T20:55:42.307Z,100347.69
2023-01-12T20:58:45.069Z,100344.53
2023-01-12T21:01:50.844Z,100353.16
2023-01-12T21:04:55.084Z,100345.28
2023-01-12T21:08:07.360Z,100341.53
2023-01-12T21:11:11.322Z,100345.53
2023-01-12T21:14:14.331Z,100349.31
2023-01-12T21:17:18.422Z,100352.44
2023-01-12T21:20:22.613Z,100354.25
2023-01-12T21:23:25.539Z,100354.97
2023-01-12T21:26:28.319Z,100356.78
2023-01-12T21:29:31.087Z,100347.25
2023-01-12T21:32:33.841Z,100348.81
2023-01-12T21:35:37.960Z,100344.31
2023-01-12T21:38:40.699Z,100346.06
2023-01-12T21:42:01.037Z,100345.09
2023-01-12T21:45:03.899Z,100333.47
2023-01-12T21:48:07.100Z,100334.06
2023-01-12T21:51:14.180Z,100333.97
2023-01-12T21:54:17.004Z,100331.66
2023-01-12T21:57:19.790Z,100325.13
2023-01-12T22:00:22.821Z,100324.88
2023-01-12T22:03:26.012Z,100312.44
2023-01-12T22:06:31.203Z,100314.13
2023-01-12T22:09:33.974Z,100313.41
2023-01-12T22:12:36.779Z,100312.66
2023-01-12T22:15:39.538Z,100317.53
2023-01-12T22:18:45.988Z,100318.75
2023-01-12T22:21:50.223Z,100318.75
2023-01-12T22:24:52.956Z,100308.81
2023-01-12T22:27:57.174Z,100313.03
2023-01-12T22:30:59.922Z,100308.81
2023-01-12T22:34:05.480Z,100306.28
2023-01-12T22:37:09.732Z,100301.88
2023-01-12T22:40:13.177Z,100299.84
2023-01-12T22:43:27.996Z,100302.38
2023-01-12T22:46:30.765Z,100302.66
2023-01-12T22:49:35.500Z,100302.25
2023-01-12T22:52:40.109Z,100300.09
2023-01-12T22:55:42.868Z,100301.31
2023-01-12T22:58:47.205Z,100296.94
2023-01-12T23:01:50.090Z,100293.44
2023-01-12T23:04:52.981Z,100301.31
2023-01-12T23:07:57.286Z,100292.34
2023-01-12T23:11:04.611Z,100290.88
2023-01-12T23:14:08.262Z,100287.13
2023-01-12T23:17:12.754Z,100279.63
2023-01-12T23:20:15.681Z,100273.34
2023-01-12T23:23:19.851Z,100270.78
2023-01-12T23:26:23.813Z,100274.69
2023-01-12T23:29:26.600Z,100260.88
2023-01-12T23:32:29.356Z,100259.91
2023-01-12T23:35:32.974Z,100253.97
2023-01-12T23:38:37.336Z,100256.03
2023-01-12T23:41:40.159Z,100262.47
2023-01-12T23:44:42.957Z,100260.78
2023-01-12T23:47:45.765Z,100262.69
2023-01-12T23:50:48.576Z,100257.13
2023-01-12T23:53:54.294Z,100255.06
2023-01-12T23:56:57.946Z,100261.34
